sensor_id;sensor_type;location;lat;lon;timestamp;temperature;humidity
41437;DHT22;27178;49.460;10.850;2023-01-10T00:02:16;9.10;81.40
41437;DHT22;27178;49.460;10.850;2023-01-10T00:04:44;9.10;81.20
41437;DHT22;27178;49.460;10.850;2023-01-10T00:07:13;9.10;81.00
41437;DHT22;27178;49.460;10.850;2023-01-10T00:09:41;9.10;81.10
41437;DHT22;27178;49.460;10.850;2023-01-10T00:12:09;9.00;81.10
41437;DHT22;27178;49.460;10.850;2023-01-10T00:14:55;9.10;81.40
41437;DHT22;27178;49.460;10.850;2023-01-10T00:17:24;9.00;81.30
41437;DHT22;27178;49.460;10.850;2023-01-10T00:19:53;9.00;81.20
41437;DHT22;27178;49.460;10.850;2023-01-10T00:22:22;9.00;81.10
41437;DHT22;27178;49.460;10.850;2023-01-10T00:24:51;9.10;81.40
41437;DHT22;27178;49.460;10.850;2023-01-10T00:27:19;9.00;81.30
41437;DHT22;27178;49.460;10.850;2023-01-10T00:29:49;9.00;81.40
41437;DHT22;27178;49.460;10.850;2023-01-10T00:32:19;9.00;81.30
41437;DHT22;27178;49.460;10.850;2023-01-10T00:34:49;9.10;81.40
41437;DHT22;27178;49.460;10.850;2023-01-10T00:37:17;9.00;81.40
41437;DHT22;27178;49.460;10.850;2023-01-10T00:39:48;9.00;81.50
41437;DHT22;27178;49.460;10.850;2023-01-10T00:42:16;9.10;81.50
41437;DHT22;27178;49.460;10.850;2023-01-10T00:45:02;9.10;81.50
41437;DHT22;27178;49.460;10.850;2023-01-10T00:47:30;9.10;81.50
41437;DHT22;27178;49.460;10.850;2023-01-10T00:50:00;9.10;81.50
41437;DHT22;27178;49.460;10.850;2023-01-10T00:52:31;9.00;81.30
41437;DHT22;27178;49.460;10.850;2023-01-10T00:55:00;9.00;81.40
41437;DHT22;27178;49.460;10.850;2023-01-10T00:57:28;9.00;81.30
41437;DHT22;27178;49.460;10.850;2023-01-10T00:59:57;9.00;81.30
41437;DHT22;27178;49.460;10.850;2023-01-10T01:02:25;9.00;81.30
41437;DHT22;27178;49.460;10.850;2023-01-10T01:04:54;9.00;81.30
41437;DHT22;27178;49.460;10.850;2023-01-10T01:07:23;9.00;81.30
41437;DHT22;27178;49.460;10.850;2023-01-10T01:09:51;9.10;81.40
41437;DHT22;27178;49.460;10.850;2023-01-10T01:12:37;9.10;81.40
41437;DHT22;27178;49.460;10.850;2023-01-10T01:15:06;9.10;81.40
41437;DHT22;27178;49.460;10.850;2023-01-10T01:17:35;9.00;81.40
41437;DHT22;27178;49.460;10.850;2023-01-10T01:20:03;9.00;81.40
41437;DHT22;27178;49.460;10.850;2023-01-10T01:22:34;9.10;81.50
41437;DHT22;27178;49.460;10.850;2023-01-10T01:25:04;9.10;81.40
41437;DHT22;27178;49.460;10.850;2023-01-10T01:27:32;9.00;81.30
41437;DHT22;27178;49.460;10.850;2023-01-10T01:30:05;9.00;81.30
41437;DHT22;27178;49.460;10.850;2023-01-10T01:32:33;9.00;81.50
41437;DHT22;27178;49.460;10.850;2023-01-10T01:35:03;9.00;81.50
41437;DHT22;27178;49.460;10.850;2023-01-10T01:37:31;9.10;81.50
41437;DHT22;27178;49.460;10.850;2023-01-10T01:40:02;9.10;81.50
41437;DHT22;27178;49.460;10.850;2023-01-10T01:42:32;9.10;81.60
41437;DHT22;27178;49.460;10.850;2023-01-10T01:48:14;9.10;81.50
41437;DHT22;27178;49.460;10.850;2023-01-10T01:50:49;9.10;81.40
41437;DHT22;27178;49.460;10.850;2023-01-10T01:53:24;9.10;81.20
41437;DHT22;27178;49.460;10.850;2023-01-10T01:55:58;9.10;81.30
41437;DHT22;27178;49.460;10.850;2023-01-10T01:58:32;9.10;81.30
41437;DHT22;27178;49.460;10.850;2023-01-10T02:01:02;9.10;81.30
41437;DHT22;27178;49.460;10.850;2023-01-10T02:03:32;9.10;81.30
41437;DHT22;27178;49.460;10.850;2023-01-10T02:06:00;9.00;81.50
41437;DHT22;27178;49.460;10.850;2023-01-10T02:08:29;9.10;81.50
41437;DHT22;27178;49.460;10.850;2023-01-10T02:11:04;9.10;81.50
41437;DHT22;27178;49.460;10.850;2023-01-10T02:13:37;9.10;82.60
41437;DHT22;27178;49.460;10.850;2023-01-10T02:16:08;9.10;81.70
41437;DHT22;27178;49.460;10.850;2023-01-10T02:18:38;9.10;81.70
41437;DHT22;27178;49.460;10.850;2023-01-10T02:24:22;9.10;81.70
41437;DHT22;27178;49.460;10.850;2023-01-10T02:27:09;9.10;81.60
41437;DHT22;27178;49.460;10.850;2023-01-10T02:30:13;9.10;81.50
41437;DHT22;27178;49.460;10.850;2023-01-10T02:32:49;9.10;81.70
41437;DHT22;27178;49.460;10.850;2023-01-10T02:35:51;9.10;81.50
41437;DHT22;27178;49.460;10.850;2023-01-10T02:38:31;9.10;81.60
41437;DHT22;27178;49.460;10.850;2023-01-10T02:41:08;9.10;81.60
41437;DHT22;27178;49.460;10.850;2023-01-10T02:43:40;9.10;81.70
41437;DHT22;27178;49.460;10.850;2023-01-10T02:46:14;9.10;81.70
41437;DHT22;27178;49.460;10.850;2023-01-10T02:48:45;9.10;81.70
41437;DHT22;27178;49.460;10.850;2023-01-10T02:51:17;9.10;81.80
41437;DHT22;27178;49.460;10.850;2023-01-10T02:53:50;9.10;81.90
41437;DHT22;27178;49.460;10.850;2023-01-10T02:57:07;9.10;81.90
41437;DHT22;27178;49.460;10.850;2023-01-10T03:00:13;9.20;82.10
41437;DHT22;27178;49.460;10.850;2023-01-10T03:02:54;9.20;82.00
41437;DHT22;27178;49.460;10.850;2023-01-10T03:05:35;9.20;82.00
41437;DHT22;27178;49.460;10.850;2023-01-10T03:08:17;9.20;82.00
41437;DHT22;27178;49.460;10.850;2023-01-10T03:10:53;9.20;82.00
41437;DHT22;27178;49.460;10.850;2023-01-10T03:13:26;9.20;82.10
41437;DHT22;27178;49.460;10.850;2023-01-10T03:15:58;9.20;82.10
41437;DHT22;27178;49.460;10.850;2023-01-10T03:18:31;9.20;82.10
41437;DHT22;27178;49.460;10.850;2023-01-10T03:21:03;9.20;82.10
41437;DHT22;27178;49.460;10.850;2023-01-10T03:23:33;9.20;82.10
41437;DHT22;27178;49.460;10.850;2023-01-10T03:26:02;9.20;82.20
41437;DHT22;27178;49.460;10.850;2023-01-10T03:32:14;9.20;82.30
41437;DHT22;27178;49.460;10.850;2023-01-10T03:34:45;9.20;82.10
41437;DHT22;27178;49.460;10.850;2023-01-10T03:37:18;9.20;82.30
41437;DHT22;27178;49.460;10.850;2023-01-10T03:39:53;9.20;82.40
41437;DHT22;27178;49.460;10.850;2023-01-10T03:42:34;9.20;82.50
41437;DHT22;27178;49.460;10.850;2023-01-10T03:45:22;9.20;82.70
41437;DHT22;27178;49.460;10.850;2023-01-10T03:47:53;9.20;82.70
41437;DHT22;27178;49.460;10.850;2023-01-10T03:50:24;9.20;82.80
41437;DHT22;27178;49.460;10.850;2023-01-10T03:52:54;9.20;82.80
41437;DHT22;27178;49.460;10.850;2023-01-10T03:55:25;9.20;82.90
41437;DHT22;27178;49.460;10.850;2023-01-10T03:57:55;9.30;83.10
41437;DHT22;27178;49.460;10.850;2023-01-10T04:00:23;9.20;83.00
41437;DHT22;27178;49.460;10.850;2023-01-10T04:02:52;9.20;83.00
41437;DHT22;27178;49.460;10.850;2023-01-10T04:05:21;9.20;83.00
41437;DHT22;27178;49.460;10.850;2023-01-10T04:07:50;9.20;83.00
41437;DHT22;27178;49.460;10.850;2023-01-10T04:10:19;9.20;83.10
41437;DHT22;27178;49.460;10.850;2023-01-10T04:12:50;9.20;83.10
41437;DHT22;27178;49.460;10.850;2023-01-10T04:15:20;9.20;83.00
41437;DHT22;27178;49.460;10.850;2023-01-10T04:17:48;9.10;83.00
41437;DHT22;27178;49.460;10.850;2023-01-10T04:20:17;9.10;83.10
41437;DHT22;27178;49.460;10.850;2023-01-10T04:22:45;9.10;83.00
41437;DHT22;27178;49.460;10.850;2023-01-10T04:25:16;9.10;83.00
41437;DHT22;27178;49.460;10.850;2023-01-10T04:27:47;9.20;83.10
41437;DHT22;27178;49.460;10.850;2023-01-10T04:30:16;9.10;83.00
41437;DHT22;27178;49.460;10.850;2023-01-10T04:32:46;9.10;83.10
41437;DHT22;27178;49.460;10.850;2023-01-10T04:35:15;9.10;83.10
41437;DHT22;27178;49.460;10.850;2023-01-10T04:37:43;9.10;83.20
41437;DHT22;27178;49.460;10.850;2023-01-10T04:40:12;9.10;83.20
41437;DHT22;27178;49.460;10.850;2023-01-10T04:42:43;9.10;83.20
41437;DHT22;27178;49.460;10.850;2023-01-10T04:45:13;9.10;83.20
41437;DHT22;27178;49.460;10.850;2023-01-10T04:47:48;9.10;83.20
41437;DHT22;27178;49.460;10.850;2023-01-10T04:50:17;9.10;83.20
41437;DHT22;27178;49.460;10.850;2023-01-10T04:52:48;9.10;83.20
41437;DHT22;27178;49.460;10.850;2023-01-10T04:55:17;9.10;83.20
41437;DHT22;27178;49.460;10.850;2023-01-10T04:57:45;9.10;83.00
41437;DHT22;27178;49.460;10.850;2023-01-10T05:00:16;9.10;83.10
41437;DHT22;27178;49.460;10.850;2023-01-10T05:02:44;9.10;83.10
41437;DHT22;27178;49.460;10.850;2023-01-10T05:05:13;9.10;83.00
41437;DHT22;27178;49.460;10.850;2023-01-10T05:07:45;9.10;83.10
41437;DHT22;27178;49.460;10.850;2023-01-10T05:10:13;9.10;83.00
41437;DHT22;27178;49.460;10.850;2023-01-10T05:12:41;9.10;83.10
41437;DHT22;27178;49.460;10.850;2023-01-10T05:15:10;9.10;83.20
41437;DHT22;27178;49.460;10.850;2023-01-10T05:17:40;9.10;83.10
41437;DHT22;27178;49.460;10.850;2023-01-10T05:20:10;9.10;83.00
41437;DHT22;27178;49.460;10.850;2023-01-10T05:22:39;9.10;83.10
41437;DHT22;27178;49.460;10.850;2023-01-10T05:25:08;9.10;83.10
41437;DHT22;27178;49.460;10.850;2023-01-10T05:27:40;9.10;83.00
41437;DHT22;27178;49.460;10.850;2023-01-10T05:30:10;9.10;83.00
41437;DHT22;27178;49.460;10.850;2023-01-10T05:32:41;9.10;82.80
41437;DHT22;27178;49.460;10.850;2023-01-10T05:35:10;9.10;82.80
41437;DHT22;27178;49.460;10.850;2023-01-10T05:37:38;9.10;82.80
41437;DHT22;27178;49.460;10.850;2023-01-10T05:40:08;9.10;82.80
41437;DHT22;27178;49.460;10.850;2023-01-10T05:42:36;9.10;82.80
41437;DHT22;27178;49.460;10.850;2023-01-10T05:45:05;9.10;82.60
41437;DHT22;27178;49.460;10.850;2023-01-10T05:47:33;9.10;82.70
41437;DHT22;27178;49.460;10.850;2023-01-10T05:50:04;9.10;82.60
41437;DHT22;27178;49.460;10.850;2023-01-10T05:52:32;9.10;82.60
41437;DHT22;27178;49.460;10.850;2023-01-10T05:55:00;9.10;82.50
41437;DHT22;27178;49.460;10.850;2023-01-10T05:57:28;9.10;82.30
41437;DHT22;27178;49.460;10.850;2023-01-10T05:59:57;9.10;82.30
41437;DHT22;27178;49.460;10.850;2023-01-10T06:02:25;9.10;82.30
41437;DHT22;27178;49.460;10.850;2023-01-10T06:04:54;9.10;82.30
41437;DHT22;27178;49.460;10.850;2023-01-10T06:07:23;9.10;82.40
41437;DHT22;27178;49.460;10.850;2023-01-10T06:09:53;9.10;82.30
41437;DHT22;27178;49.460;10.850;2023-01-10T06:12:21;9.10;82.10
41437;DHT22;27178;49.460;10.850;2023-01-10T06:14:49;9.10;82.00
41437;DHT22;27178;49.460;10.850;2023-01-10T06:17:17;9.10;82.10
41437;DHT22;27178;49.460;10.850;2023-01-10T06:19:46;9.00;82.00
41437;DHT22;27178;49.460;10.850;2023-01-10T06:22:14;9.10;82.10
41437;DHT22;27178;49.460;10.850;2023-01-10T06:24:44;9.00;82.10
41437;DHT22;27178;49.460;10.850;2023-01-10T06:27:12;9.00;82.10
41437;DHT22;27178;49.460;10.850;2023-01-10T06:29:40;9.00;82.10
41437;DHT22;27178;49.460;10.850;2023-01-10T06:32:09;9.00;82.10
41437;DHT22;27178;49.460;10.850;2023-01-10T06:34:37;9.00;82.10
41437;DHT22;27178;49.460;10.850;2023-01-10T06:37:06;9.00;82.20
41437;DHT22;27178;49.460;10.850;2023-01-10T06:39:34;9.00;82.10
41437;DHT22;27178;49.460;10.850;2023-01-10T06:42:04;9.00;82.10
41437;DHT22;27178;49.460;10.850;2023-01-10T06:44:32;9.10;82.20
41437;DHT22;27178;49.460;10.850;2023-01-10T06:47:01;9.00;82.30
41437;DHT22;27178;49.460;10.850;2023-01-10T06:49:29;8.30;81.80
41437;DHT22;27178;49.460;10.850;2023-01-10T06:51:57;9.10;82.20
41437;DHT22;27178;49.460;10.850;2023-01-10T06:54:25;9.00;82.10
41437;DHT22;27178;49.460;10.850;2023-01-10T06:56:54;9.10;82.20
41437;DHT22;27178;49.460;10.850;2023-01-10T06:59:23;9.00;82.10
41437;DHT22;27178;49.460;10.850;2023-01-10T07:01:52;9.10;82.10
41437;DHT22;27178;49.460;10.850;2023-01-10T07:04:20;9.00;81.90
41437;DHT22;27178;49.460;10.850;2023-01-10T07:06:49;9.00;82.10
41437;DHT22;27178;49.460;10.850;2023-01-10T07:09:17;9.10;82.00
41437;DHT22;27178;49.460;10.850;2023-01-10T07:11:46;9.00;81.90
41437;DHT22;27178;49.460;10.850;2023-01-10T07:14:14;9.00;81.90
41437;DHT22;27178;49.460;10.850;2023-01-10T07:16:44;9.00;81.90
41437;DHT22;27178;49.460;10.850;2023-01-10T07:19:12;9.00;81.90
41437;DHT22;27178;49.460;10.850;2023-01-10T07:21:43;9.00;81.90
41437;DHT22;27178;49.460;10.850;2023-01-10T07:24:12;9.00;81.90
41437;DHT22;27178;49.460;10.850;2023-01-10T07:26:40;9.00;81.90
41437;DHT22;27178;49.460;10.850;2023-01-10T07:29:08;9.00;81.70
41437;DHT22;27178;49.460;10.850;2023-01-10T07:31:36;9.00;81.70
41437;DHT22;27178;49.460;10.850;2023-01-10T07:34:06;9.00;81.70
41437;DHT22;27178;49.460;10.850;2023-01-10T07:36:34;9.00;81.70
41437;DHT22;27178;49.460;10.850;2023-01-10T07:39:05;9.00;81.70
41437;DHT22;27178;49.460;10.850;2023-01-10T07:41:33;9.00;81.70
41437;DHT22;27178;49.460;10.850;2023-01-10T07:44:02;9.00;81.80
41437;DHT22;27178;49.460;10.850;2023-01-10T07:46:31;9.00;81.70
41437;DHT22;27178;49.460;10.850;2023-01-10T07:48:59;9.00;81.70
41437;DHT22;27178;49.460;10.850;2023-01-10T07:51:29;9.00;81.40
41437;DHT22;27178;49.460;10.850;2023-01-10T07:53:57;9.00;81.40
41437;DHT22;27178;49.460;10.850;2023-01-10T07:56:25;9.00;81.50
41437;DHT22;27178;49.460;10.850;2023-01-10T07:58:54;8.90;81.40
41437;DHT22;27178;49.460;10.850;2023-01-10T08:01:23;9.00;81.40
41437;DHT22;27178;49.460;10.850;2023-01-10T08:03:51;9.00;81.50
41437;DHT22;27178;49.460;10.850;2023-01-10T08:06:20;8.90;81.30
41437;DHT22;27178;49.460;10.850;2023-01-10T08:08:50;8.90;81.10
41437;DHT22;27178;49.460;10.850;2023-01-10T08:11:18;8.90;81.20
41437;DHT22;27178;49.460;10.850;2023-01-10T08:13:47;8.90;81.20
41437;DHT22;27178;49.460;10.850;2023-01-10T08:16:15;8.90;81.30
41437;DHT22;27178;49.460;10.850;2023-01-10T08:18:44;9.00;81.30
41437;DHT22;27178;49.460;10.850;2023-01-10T08:21:12;8.90;81.30
41437;DHT22;27178;49.460;10.850;2023-01-10T08:23:41;8.90;81.30
41437;DHT22;27178;49.460;10.850;2023-01-10T08:26:11;9.00;81.30
41437;DHT22;27178;49.460;10.850;2023-01-10T08:28:39;8.90;81.20
41437;DHT22;27178;49.460;10.850;2023-01-10T08:31:08;9.00;81.30
41437;DHT22;27178;49.460;10.850;2023-01-10T08:33:37;8.90;81.30
41437;DHT22;27178;49.460;10.850;2023-01-10T08:36:13;8.90;81.30
41437;DHT22;27178;49.460;10.850;2023-01-10T08:38:42;8.90;81.10
41437;DHT22;27178;49.460;10.850;2023-01-10T08:41:12;8.90;82.10
41437;DHT22;27178;49.460;10.850;2023-01-10T08:43:41;8.90;81.30
41437;DHT22;27178;49.460;10.850;2023-01-10T08:46:09;8.90;81.20
41437;DHT22;27178;49.460;10.850;2023-01-10T08:48:38;9.00;81.00
41437;DHT22;27178;49.460;10.850;2023-01-10T08:51:08;8.90;81.00
41437;DHT22;27178;49.460;10.850;2023-01-10T08:53:38;8.90;81.20
41437;DHT22;27178;49.460;10.850;2023-01-10T08:56:07;9.00;81.20
41437;DHT22;27178;49.460;10.850;2023-01-10T08:58:37;9.00;81.20
41437;DHT22;27178;49.460;10.850;2023-01-10T09:01:07;9.00;81.20
41437;DHT22;27178;49.460;10.850;2023-01-10T09:03:37;9.00;81.20
41437;DHT22;27178;49.460;10.850;2023-01-10T09:06:07;9.00;80.90
41437;DHT22;27178;49.460;10.850;2023-01-10T09:08:35;9.00;80.90
41437;DHT22;27178;49.460;10.850;2023-01-10T09:11:05;9.00;80.80
41437;DHT22;27178;49.460;10.850;2023-01-10T09:13:33;9.10;80.80
41437;DHT22;27178;49.460;10.850;2023-01-10T09:16:03;9.10;80.80
41437;DHT22;27178;49.460;10.850;2023-01-10T09:18:32;9.10;80.80
41437;DHT22;27178;49.460;10.850;2023-01-10T09:21:01;9.10;80.70
41437;DHT22;27178;49.460;10.850;2023-01-10T09:23:31;9.10;80.80
41437;DHT22;27178;49.460;10.850;2023-01-10T09:26:02;9.10;80.70
41437;DHT22;27178;49.460;10.850;2023-01-10T09:28:31;9.10;80.60
41437;DHT22;27178;49.460;10.850;2023-01-10T09:30:59;9.10;80.40
41437;DHT22;27178;49.460;10.850;2023-01-10T09:33:31;9.10;80.40
41437;DHT22;27178;49.460;10.850;2023-01-10T09:36:12;9.10;80.40
41437;DHT22;27178;49.460;10.850;2023-01-10T09:38:42;9.10;80.30
41437;DHT22;27178;49.460;10.850;2023-01-10T09:41:19;9.10;80.10
41437;DHT22;27178;49.460;10.850;2023-01-10T09:43:59;9.20;80.40
41437;DHT22;27178;49.460;10.850;2023-01-10T09:46:36;9.20;80.30
41437;DHT22;27178;49.460;10.850;2023-01-10T09:49:17;9.20;80.00
41437;DHT22;27178;49.460;10.850;2023-01-10T09:51:51;9.20;80.00
41437;DHT22;27178;49.460;10.850;2023-01-10T09:54:24;9.20;79.70
41437;DHT22;27178;49.460;10.850;2023-01-10T09:56:55;9.20;79.40
41437;DHT22;27178;49.460;10.850;2023-01-10T09:59:29;9.20;79.60
41437;DHT22;27178;49.460;10.850;2023-01-10T10:02:03;9.30;79.70
41437;DHT22;27178;49.460;10.850;2023-01-10T10:04:36;9.30;79.70
41437;DHT22;27178;49.460;10.850;2023-01-10T10:07:11;9.30;79.60
41437;DHT22;27178;49.460;10.850;2023-01-10T10:09:40;9.30;79.60
41437;DHT22;27178;49.460;10.850;2023-01-10T10:12:23;9.30;79.90
41437;DHT22;27178;49.460;10.850;2023-01-10T10:15:02;9.40;79.70
41437;DHT22;27178;49.460;10.850;2023-01-10T10:17:41;9.40;79.70
41437;DHT22;27178;49.460;10.850;2023-01-10T10:20:27;9.40;79.30
41437;DHT22;27178;49.460;10.850;2023-01-10T10:23:13;9.40;78.70
41437;DHT22;27178;49.460;10.850;2023-01-10T10:25:56;9.40;78.90
41437;DHT22;27178;49.460;10.850;2023-01-10T10:28:54;9.40;79.20
41437;DHT22;27178;49.460;10.850;2023-01-10T10:31:36;9.40;79.10
41437;DHT22;27178;49.460;10.850;2023-01-10T10:34:13;9.40;79.10
41437;DHT22;27178;49.460;10.850;2023-01-10T10:36:49;9.50;79.10
41437;DHT22;27178;49.460;10.850;2023-01-10T10:39:22;9.40;78.80
41437;DHT22;27178;49.460;10.850;2023-01-10T10:41:52;9.40;78.70
41437;DHT22;27178;49.460;10.850;2023-01-10T10:44:31;9.40;78.80
41437;DHT22;27178;49.460;10.850;2023-01-10T10:47:01;9.40;78.70
41437;DHT22;27178;49.460;10.850;2023-01-10T10:49:36;9.50;78.80
41437;DHT22;27178;49.460;10.850;2023-01-10T10:52:13;9.50;78.70
41437;DHT22;27178;49.460;10.850;2023-01-10T10:54:44;9.50;78.60
41437;DHT22;27178;49.460;10.850;2023-01-10T10:57:13;9.50;78.80
41437;DHT22;27178;49.460;10.850;2023-01-10T10:59:45;9.50;78.80
41437;DHT22;27178;49.460;10.850;2023-01-10T11:02:26;9.50;78.60
41437;DHT22;27178;49.460;10.850;2023-01-10T11:04:57;9.50;78.20
41437;DHT22;27178;49.460;10.850;2023-01-10T11:07:31;9.50;78.30
41437;DHT22;27178;49.460;10.850;2023-01-10T11:10:02;9.60;78.60
41437;DHT22;27178;49.460;10.850;2023-01-10T11:12:51;9.60;78.00
41437;DHT22;27178;49.460;10.850;2023-01-10T11:15:36;9.60;78.10
41437;DHT22;27178;49.460;10.850;2023-01-10T11:18:06;9.60;77.80
41437;DHT22;27178;49.460;10.850;2023-01-10T11:20:46;9.70;77.80
41437;DHT22;27178;49.460;10.850;2023-01-10T11:23:25;9.70;77.60
41437;DHT22;27178;49.460;10.850;2023-01-10T11:25:56;9.70;77.60
41437;DHT22;27178;49.460;10.850;2023-01-10T11:28:27;9.70;77.40
41437;DHT22;27178;49.460;10.850;2023-01-10T11:30:58;9.70;77.30
41437;DHT22;27178;49.460;10.850;2023-01-10T11:33:29;9.70;76.70
41437;DHT22;27178;49.460;10.850;2023-01-10T11:36:02;9.80;77.00
41437;DHT22;27178;49.460;10.850;2023-01-10T11:38:32;9.80;76.50
41437;DHT22;27178;49.460;10.850;2023-01-10T11:41:03;9.80;77.80
41437;DHT22;27178;49.460;10.850;2023-01-10T11:43:34;9.80;77.30
41437;DHT22;27178;49.460;10.850;2023-01-10T11:46:06;9.80;77.10
41437;DHT22;27178;49.460;10.850;2023-01-10T11:48:42;9.90;76.90
41437;DHT22;27178;49.460;10.850;2023-01-10T11:51:33;9.90;76.90
41437;DHT22;27178;49.460;10.850;2023-01-10T11:54:06;9.90;76.80
41437;DHT22;27178;49.460;10.850;2023-01-10T11:56:38;9.90;76.00
41437;DHT22;27178;49.460;10.850;2023-01-10T11:59:12;10.00;76.30
41437;DHT22;27178;49.460;10.850;2023-01-10T12:01:44;9.90;76.00
41437;DHT22;27178;49.460;10.850;2023-01-10T12:04:14;10.00;76.20
41437;DHT22;27178;49.460;10.850;2023-01-10T12:06:44;9.90;75.90
41437;DHT22;27178;49.460;10.850;2023-01-10T12:09:34;9.90;76.20
41437;DHT22;27178;49.460;10.850;2023-01-10T12:12:04;10.00;76.00
41437;DHT22;27178;49.460;10.850;2023-01-10T12:14:33;10.00;76.90
41437;DHT22;27178;49.460;10.850;2023-01-10T12:17:02;10.00;75.90
41437;DHT22;27178;49.460;10.850;2023-01-10T12:19:31;9.90;75.90
41437;DHT22;27178;49.460;10.850;2023-01-10T12:22:02;10.00;76.00
41437;DHT22;27178;49.460;10.850;2023-01-10T12:24:34;10.00;75.90
41437;DHT22;27178;49.460;10.850;2023-01-10T12:27:08;10.00;75.60
41437;DHT22;27178;49.460;10.850;2023-01-10T12:29:41;10.00;75.90
41437;DHT22;27178;49.460;10.850;2023-01-10T12:32:16;10.00;76.00
41437;DHT22;27178;49.460;10.850;2023-01-10T12:34:50;10.00;75.40
41437;DHT22;27178;49.460;10.850;2023-01-10T12:37:33;10.00;75.20
41437;DHT22;27178;49.460;10.850;2023-01-10T12:40:12;10.00;75.40
41437;DHT22;27178;49.460;10.850;2023-01-10T12:42:48;10.10;75.60
41437;DHT22;27178;49.460;10.850;2023-01-10T12:45:40;10.10;75.40
41437;DHT22;27178;49.460;10.850;2023-01-10T12:48:14;10.00;75.00
41437;DHT22;27178;49.460;10.850;2023-01-10T12:50:46;10.10;75.30
41437;DHT22;27178;49.460;10.850;2023-01-10T12:53:34;10.10;75.00
41437;DHT22;27178;49.460;10.850;2023-01-10T12:56:08;10.10;75.00
41437;DHT22;27178;49.460;10.850;2023-01-10T12:58:41;10.10;75.20
41437;DHT22;27178;49.460;10.850;2023-01-10T13:01:13;10.10;74.70
41437;DHT22;27178;49.460;10.850;2023-01-10T13:03:45;10.10;74.60
41437;DHT22;27178;49.460;10.850;2023-01-10T13:06:23;10.00;74.60
41437;DHT22;27178;49.460;10.850;2023-01-10T13:08:54;10.00;74.50
41437;DHT22;27178;49.460;10.850;2023-01-10T13:11:29;10.10;75.00
41437;DHT22;27178;49.460;10.850;2023-01-10T13:14:01;10.00;74.70
41437;DHT22;27178;49.460;10.850;2023-01-10T13:16:35;10.10;74.70
41437;DHT22;27178;49.460;10.850;2023-01-10T13:19:25;10.20;74.80
41437;DHT22;27178;49.460;10.850;2023-01-10T13:22:18;10.30;73.00
41437;DHT22;27178;49.460;10.850;2023-01-10T13:24:55;10.30;73.10
41437;DHT22;27178;49.460;10.850;2023-01-10T13:27:28;10.40;73.40
41437;DHT22;27178;49.460;10.850;2023-01-10T13:29:58;10.30;73.60
41437;DHT22;27178;49.460;10.850;2023-01-10T13:32:28;10.30;73.60
41437;DHT22;27178;49.460;10.850;2023-01-10T13:35:11;10.30;73.50
41437;DHT22;27178;49.460;10.850;2023-01-10T13:37:42;10.30;73.00
41437;DHT22;27178;49.460;10.850;2023-01-10T13:40:19;10.30;73.40
41437;DHT22;27178;49.460;10.850;2023-01-10T13:52:29;10.30;73.90
41437;DHT22;27178;49.460;10.850;2023-01-10T13:54:59;10.30;73.20
41437;DHT22;27178;49.460;10.850;2023-01-10T13:57:51;10.20;73.40
41437;DHT22;27178;49.460;10.850;2023-01-10T14:00:23;10.20;72.70
41437;DHT22;27178;49.460;10.850;2023-01-10T14:03:45;10.20;73.40
41437;DHT22;27178;49.460;10.850;2023-01-10T14:06:34;10.20;74.00
41437;DHT22;27178;49.460;10.850;2023-01-10T14:09:36;10.20;73.60
41437;DHT22;27178;49.460;10.850;2023-01-10T14:12:14;10.10;73.00
41437;DHT22;27178;49.460;10.850;2023-01-10T14:14:51;10.10;73.30
41437;DHT22;27178;49.460;10.850;2023-01-10T14:17:22;10.00;72.80
41437;DHT22;27178;49.460;10.850;2023-01-10T14:20:04;10.00;73.00
41437;DHT22;27178;49.460;10.850;2023-01-10T14:22:36;10.00;73.10
41437;DHT22;27178;49.460;10.850;2023-01-10T14:25:14;10.00;73.20
41437;DHT22;27178;49.460;10.850;2023-01-10T14:27:45;9.90;73.20
41437;DHT22;27178;49.460;10.850;2023-01-10T14:30:16;9.90;73.30
41437;DHT22;27178;49.460;10.850;2023-01-10T14:32:48;9.90;73.40
41437;DHT22;27178;49.460;10.850;2023-01-10T14:35:21;9.90;73.60
41437;DHT22;27178;49.460;10.850;2023-01-10T14:37:52;9.80;73.60
41437;DHT22;27178;49.460;10.850;2023-01-10T14:40:26;9.80;73.70
41437;DHT22;27178;49.460;10.850;2023-01-10T14:42:57;9.80;73.70
41437;DHT22;27178;49.460;10.850;2023-01-10T14:45:33;9.80;74.00
41437;DHT22;27178;49.460;10.850;2023-01-10T14:48:23;9.80;74.00
41437;DHT22;27178;49.460;10.850;2023-01-10T14:51:08;9.70;74.00
41437;DHT22;27178;49.460;10.850;2023-01-10T14:53:38;9.70;74.30
41437;DHT22;27178;49.460;10.850;2023-01-10T14:56:19;9.70;74.20
41437;DHT22;27178;49.460;10.850;2023-01-10T14:58:48;9.70;74.50
41437;DHT22;27178;49.460;10.850;2023-01-10T15:01:21;9.70;74.50
41437;DHT22;27178;49.460;10.850;2023-01-10T15:03:51;9.70;75.60
41437;DHT22;27178;49.460;10.850;2023-01-10T15:06:22;9.60;74.70
41437;DHT22;27178;49.460;10.850;2023-01-10T15:08:56;9.60;74.70
41437;DHT22;27178;49.460;10.850;2023-01-10T15:11:26;9.60;75.00
41437;DHT22;27178;49.460;10.850;2023-01-10T15:14:00;9.60;75.00
41437;DHT22;27178;49.460;10.850;2023-01-10T15:16:30;9.60;75.00
41437;DHT22;27178;49.460;10.850;2023-01-10T15:18:59;9.60;75.00
41437;DHT22;27178;49.460;10.850;2023-01-10T15:21:29;9.60;75.00
41437;DHT22;27178;49.460;10.850;2023-01-10T15:23:58;9.60;75.00
41437;DHT22;27178;49.460;10.850;2023-01-10T15:26:28;9.50;75.20
41437;DHT22;27178;49.460;10.850;2023-01-10T15:29:05;9.50;75.40
41437;DHT22;27178;49.460;10.850;2023-01-10T15:31:39;9.50;75.80
41437;DHT22;27178;49.460;10.850;2023-01-10T15:34:10;9.50;75.80
41437;DHT22;27178;49.460;10.850;2023-01-10T15:36:47;9.50;75.80
41437;DHT22;27178;49.460;10.850;2023-01-10T15:39:20;9.50;75.90
41437;DHT22;27178;49.460;10.850;2023-01-10T15:41:50;9.50;75.80
41437;DHT22;27178;49.460;10.850;2023-01-10T15:44:31;9.50;75.80
41437;DHT22;27178;49.460;10.850;2023-01-10T15:47:01;9.50;76.00
41437;DHT22;27178;49.460;10.850;2023-01-10T15:49:30;9.50;75.90
41437;DHT22;27178;49.460;10.850;2023-01-10T15:52:00;9.50;75.80
41437;DHT22;27178;49.460;10.850;2023-01-10T15:54:32;9.50;75.80
41437;DHT22;27178;49.460;10.850;2023-01-10T15:57:05;9.50;75.90
41437;DHT22;27178;49.460;10.850;2023-01-10T15:59:36;9.40;76.20
41437;DHT22;27178;49.460;10.850;2023-01-10T16:02:17;9.40;76.00
41437;DHT22;27178;49.460;10.850;2023-01-10T16:04:50;9.40;75.70
41437;DHT22;27178;49.460;10.850;2023-01-10T16:07:23;9.40;75.60
41437;DHT22;27178;49.460;10.850;2023-01-10T16:09:57;9.40;75.60
41437;DHT22;27178;49.460;10.850;2023-01-10T16:12:32;9.40;75.80
41437;DHT22;27178;49.460;10.850;2023-01-10T16:15:22;9.30;76.00
41437;DHT22;27178;49.460;10.850;2023-01-10T16:17:51;9.30;75.90
41437;DHT22;27178;49.460;10.850;2023-01-10T16:20:21;9.30;75.80
41437;DHT22;27178;49.460;10.850;2023-01-10T16:22:52;9.20;75.60
41437;DHT22;27178;49.460;10.850;2023-01-10T16:25:25;9.20;75.60